createdAt,value
2019-05-14T00:01:13.622Z,9.35
2019-05-14T00:03:41.362Z,9.45
2019-05-14T00:06:07.564Z,9.47
2019-05-14T00:08:33.600Z,9.40
2019-05-14T00:11:01.474Z,9.46
2019-05-14T00:13:27.751Z,9.41
2019-05-14T00:15:53.835Z,9.40
2019-05-14T00:18:22.213Z,9.45
2019-05-14T00:20:47.870Z,9.37
2019-05-14T00:23:13.976Z,9.41
2019-05-14T00:25:41.889Z,9.37
2019-05-14T00:28:07.939Z,9.38
2019-05-14T00:30:34.101Z,9.32
2019-05-14T00:33:01.253Z,9.37
2019-05-14T00:35:27.644Z,9.22
2019-05-14T00:37:53.687Z,9.07
2019-05-14T00:40:21.897Z,9.14
2019-05-14T00:42:48.031Z,9.17
2019-05-14T00:45:16.088Z,8.91
2019-05-14T00:47:42.131Z,9.07
2019-05-14T00:50:08.642Z,9.21
2019-05-14T00:52:35.267Z,9.15
2019-05-14T00:55:01.405Z,8.94
2019-05-14T00:57:27.424Z,8.90
2019-05-14T00:59:53.473Z,9.06
2019-05-14T01:02:21.615Z,9.07
2019-05-14T01:04:47.546Z,8.90
2019-05-14T01:07:13.575Z,8.77
2019-05-14T01:09:41.834Z,8.87
2019-05-14T01:12:07.612Z,8.90
2019-05-14T01:14:33.728Z,8.91
2019-05-14T01:17:01.804Z,8.94
2019-05-14T01:19:27.581Z,8.89
2019-05-14T01:21:53.628Z,8.87
2019-05-14T01:24:21.466Z,8.81
2019-05-14T01:26:47.537Z,8.72
2019-05-14T01:29:13.592Z,8.79
2019-05-14T01:31:41.607Z,8.75
2019-05-14T01:34:07.850Z,8.72
2019-05-14T01:36:33.832Z,8.63
2019-05-14T01:39:01.789Z,8.63
2019-05-14T01:41:27.845Z,8.73
2019-05-14T01:43:53.969Z,8.58
2019-05-14T01:46:21.072Z,8.58
2019-05-14T01:48:47.292Z,8.66
2019-05-14T01:51:13.317Z,8.62
2019-05-14T01:53:41.486Z,8.60
2019-05-14T01:56:07.361Z,8.62
2019-05-14T01:58:33.356Z,8.57
2019-05-14T02:01:01.971Z,8.59
2019-05-14T02:03:28.033Z,8.58
2019-05-14T02:05:54.072Z,8.62
2019-05-14T02:08:21.441Z,8.59
2019-05-14T02:10:47.633Z,8.53
2019-05-14T02:13:13.666Z,8.53
2019-05-14T02:15:42.728Z,8.41
2019-05-14T02:18:07.564Z,8.21
2019-05-14T02:20:33.560Z,8.23
2019-05-14T02:23:01.557Z,8.22
2019-05-14T02:25:27.534Z,8.12
2019-05-14T02:27:53.513Z,8.04
2019-05-14T02:30:24.798Z,8.02
2019-05-14T02:32:49.824Z,8.09
2019-05-14T02:35:15.317Z,8.07
2019-05-14T02:37:41.352Z,8.05
2019-05-14T02:40:09.885Z,8.06
2019-05-14T02:42:35.949Z,8.11
2019-05-14T02:45:04.697Z,8.16
2019-05-14T02:47:30.665Z,8.07
2019-05-14T02:49:58.969Z,8.05
2019-05-14T02:52:24.593Z,8.01
2019-05-14T02:54:50.579Z,7.98
2019-05-14T02:57:19.728Z,7.96
2019-05-14T02:59:44.942Z,7.93
2019-05-14T03:02:10.991Z,8.03
2019-05-14T03:04:39.559Z,7.91
2019-05-14T03:07:05.083Z,7.93
2019-05-14T03:09:31.347Z,7.96
2019-05-14T03:11:59.467Z,7.96
2019-05-14T03:14:25.731Z,7.98
2019-05-14T03:16:51.894Z,7.96
2019-05-14T03:19:19.670Z,7.88
2019-05-14T03:21:45.894Z,7.88
2019-05-14T03:24:12.138Z,7.84
2019-05-14T03:26:39.765Z,7.91
2019-05-14T03:29:09.581Z,7.82
2019-05-14T03:31:34.273Z,7.94
2019-05-14T03:34:02.825Z,7.85
2019-05-14T03:36:34.175Z,7.88
2019-05-14T03:38:59.210Z,7.88
2019-05-14T03:41:24.476Z,7.74
2019-05-14T03:43:50.626Z,8.53
2019-05-14T03:46:20.294Z,9.06
2019-05-14T03:48:44.638Z,8.64
2019-05-14T03:51:10.782Z,8.43
2019-05-14T03:53:55.894Z,8.35
2019-05-14T03:56:04.863Z,8.17
2019-05-14T03:58:31.014Z,8.02
2019-05-14T04:01:00.636Z,7.96
2019-05-14T04:03:29.549Z,8.01
2019-05-14T04:05:59.401Z,7.94
2019-05-14T04:08:25.095Z,7.94
2019-05-14T04:10:54.230Z,8.14
2019-05-14T04:13:22.463Z,8.14
2019-05-14T04:15:52.213Z,8.07
2019-05-14T04:18:19.503Z,8.17
2019-05-14T04:20:50.156Z,7.97
2019-05-14T04:23:15.734Z,8.02
2019-05-14T04:25:42.525Z,7.92
2019-05-14T04:28:12.468Z,8.05
2019-05-14T04:30:40.185Z,8.01
2019-05-14T04:33:10.347Z,8.27
2019-05-14T04:35:34.995Z,8.22
2019-05-14T04:38:00.971Z,8.09
2019-05-14T04:40:29.636Z,8.13
2019-05-14T04:42:54.921Z,8.24
2019-05-14T04:45:20.937Z,8.35
2019-05-14T04:47:49.794Z,8.31
2019-05-14T04:50:14.988Z,8.44
2019-05-14T04:52:41.102Z,8.59
2019-05-14T04:55:09.875Z,8.60
2019-05-14T04:57:35.454Z,8.73
2019-05-14T05:00:01.876Z,8.62
2019-05-14T05:02:30.203Z,8.81
2019-05-14T05:04:55.951Z,8.92
2019-05-14T05:07:21.988Z,8.89
2019-05-14T05:09:50.142Z,8.96
2019-05-14T05:12:15.905Z,8.87
2019-05-14T05:14:41.893Z,9.03
2019-05-14T05:17:09.244Z,9.11
2019-05-14T05:19:35.542Z,9.12
2019-05-14T05:22:01.529Z,9.12
2019-05-14T05:24:28.772Z,9.14
2019-05-14T05:26:54.965Z,9.29
2019-05-14T05:29:21.039Z,9.45
2019-05-14T05:31:48.820Z,9.49
2019-05-14T05:34:15.276Z,9.49
2019-05-14T05:36:43.230Z,9.57
2019-05-14T05:39:09.333Z,9.66
2019-05-14T05:41:35.481Z,9.69
2019-05-14T05:44:01.859Z,9.72
2019-05-14T05:46:28.650Z,9.76
2019-05-14T05:48:54.780Z,9.84
2019-05-14T05:51:20.795Z,9.83
2019-05-14T05:53:48.403Z,9.99
2019-05-14T05:56:15.772Z,10.11
2019-05-14T05:58:41.764Z,10.13
2019-05-14T06:01:09.572Z,10.16
2019-05-14T06:03:35.743Z,10.25
2019-05-14T06:06:01.749Z,10.18
2019-05-14T06:08:28.249Z,10.24
2019-05-14T06:10:54.368Z,10.20
2019-05-14T06:13:20.400Z,10.23
2019-05-14T06:15:49.404Z,10.16
2019-05-14T06:18:18.353Z,10.23
2019-05-14T06:20:42.306Z,10.41
2019-05-14T06:23:08.562Z,10.57
2019-05-14T06:25:34.895Z,10.58
2019-05-14T06:28:01.076Z,10.59
2019-05-14T06:30:32.219Z,10.64
2019-05-14T06:32:59.363Z,10.73
2019-05-14T06:35:28.475Z,10.81
2019-05-14T06:37:54.750Z,10.90
2019-05-14T06:40:21.057Z,11.03
2019-05-14T06:42:48.548Z,11.27
2019-05-14T06:45:14.844Z,11.47
2019-05-14T06:47:40.846Z,11.75
2019-05-14T06:50:11.649Z,12.14
2019-05-14T06:52:38.596Z,12.63
2019-05-14T06:55:09.156Z,13.02
2019-05-14T06:57:39.095Z,12.76
2019-05-14T07:00:08.861Z,13.06
2019-05-14T07:02:34.910Z,13.21
2019-05-14T07:05:01.220Z,13.49
2019-05-14T07:07:30.005Z,13.73
2019-05-14T07:09:55.228Z,13.75
2019-05-14T07:12:26.212Z,13.78
2019-05-14T07:14:52.220Z,13.89
2019-05-14T07:17:20.162Z,14.48
2019-05-14T07:19:49.095Z,14.82
2019-05-14T07:22:19.563Z,14.93
2019-05-14T07:24:45.804Z,15.17
2019-05-14T07:27:11.821Z,14.70
2019-05-14T07:29:38.751Z,14.53
2019-05-14T07:32:05.010Z,14.70
2019-05-14T07:34:33.029Z,14.62
2019-05-14T07:37:00.924Z,15.04
2019-05-14T07:39:29.051Z,15.19
2019-05-14T07:41:54.943Z,15.52
2019-05-14T07:44:20.941Z,15.89
2019-05-14T07:46:48.320Z,15.92
2019-05-14T07:49:14.557Z,15.31
2019-05-14T07:51:40.593Z,15.61
2019-05-14T07:54:08.304Z,16.14
2019-05-14T07:56:34.593Z,16.08
2019-05-14T07:59:02.360Z,15.92
2019-05-14T08:01:28.418Z,16.49
2019-05-14T08:03:54.475Z,16.33
2019-05-14T08:06:22.613Z,15.70
2019-05-14T08:08:49.385Z,15.65
2019-05-14T08:11:15.689Z,16.22
2019-05-14T08:13:42.663Z,16.94
2019-05-14T08:16:09.029Z,17.15
2019-05-14T08:18:35.178Z,16.69
2019-05-14T08:21:08.280Z,16.66
2019-05-14T08:23:35.983Z,16.87
2019-05-14T08:26:03.605Z,16.58
2019-05-14T08:28:40.837Z,16.91
2019-05-14T08:31:09.440Z,17.77
2019-05-14T08:33:35.009Z,18.26
2019-05-14T08:36:03.929Z,18.12
2019-05-14T08:38:29.959Z,17.56
2019-05-14T08:40:56.000Z,17.89
2019-05-14T08:43:22.022Z,18.13
2019-05-14T08:45:51.820Z,18.10
2019-05-14T08:48:19.037Z,18.08
2019-05-14T08:50:45.299Z,18.19
2019-05-14T08:53:11.281Z,17.89
2019-05-14T08:55:38.158Z,17.45
2019-05-14T08:58:04.498Z,17.10
2019-05-14T09:00:32.563Z,16.72
2019-05-14T09:03:03.141Z,17.23
2019-05-14T09:05:29.184Z,18.19
2019-05-14T09:07:59.034Z,18.02
2019-05-14T09:10:25.069Z,17.65
2019-05-14T09:12:51.153Z,17.59
2019-05-14T09:15:18.618Z,18.21
2019-05-14T09:17:48.590Z,18.05
2019-05-14T09:20:14.903Z,18.47
2019-05-14T09:22:40.936Z,18.68
2019-05-14T09:25:08.478Z,19.17
2019-05-14T09:27:34.631Z,18.51
2019-05-14T09:30:02.568Z,18.67
2019-05-14T09:32:29.147Z,18.54
2019-05-14T09:34:58.934Z,18.37
2019-05-14T09:37:25.219Z,18.87
2019-05-14T09:39:51.258Z,18.98
2019-05-14T09:42:19.461Z,19.36
2019-05-14T09:44:45.165Z,19.62
2019-05-14T09:47:11.186Z,20.04
2019-05-14T09:49:38.814Z,19.25
2019-05-14T09:52:05.108Z,18.85
2019-05-14T09:54:33.125Z,19.04
2019-05-14T09:57:01.137Z,19.46
2019-05-14T09:59:28.013Z,19.13
2019-05-14T10:01:58.388Z,18.40
2019-05-14T10:04:24.018Z,18.26
2019-05-14T10:06:53.060Z,17.88
2019-05-14T10:09:19.144Z,17.11
2019-05-14T10:11:48.614Z,17.90
2019-05-14T10:14:14.790Z,18.14
2019-05-14T10:16:40.800Z,19.15
2019-05-14T10:19:06.780Z,19.35
2019-05-14T10:21:32.839Z,18.64
2019-05-14T10:23:58.907Z,19.38
2019-05-14T10:26:24.959Z,19.33
2019-05-14T10:28:51.017Z,19.60
2019-05-14T10:31:18.287Z,19.30
2019-05-14T10:33:48.542Z,20.07
2019-05-14T10:36:18.772Z,19.89
2019-05-14T10:38:44.285Z,19.58
2019-05-14T10:41:12.286Z,20.00
2019-05-14T10:43:40.212Z,20.96
2019-05-14T10:46:09.059Z,20.15
2019-05-14T10:48:36.361Z,20.59
2019-05-14T10:51:04.204Z,20.11
2019-05-14T10:53:30.191Z,20.14
2019-05-14T10:55:58.301Z,19.88
2019-05-14T10:58:24.872Z,19.37
2019-05-14T11:00:51.025Z,18.54
2019-05-14T11:03:24.637Z,18.57
2019-05-14T11:05:52.932Z,18.03
2019-05-14T11:08:19.154Z,17.84
2019-05-14T11:10:49.748Z,17.19
2019-05-14T11:13:15.190Z,17.10
2019-05-14T11:15:42.448Z,17.38
2019-05-14T11:18:09.060Z,17.25
2019-05-14T11:20:35.045Z,17.66
2019-05-14T11:23:01.638Z,18.21
2019-05-14T11:25:28.720Z,18.14
2019-05-14T11:27:54.985Z,18.41
2019-05-14T11:30:21.617Z,18.07
2019-05-14T11:32:49.208Z,17.60
2019-05-14T11:35:15.535Z,17.01
2019-05-14T11:37:41.657Z,16.89
2019-05-14T11:40:08.775Z,16.81
2019-05-14T11:42:34.838Z,17.07
2019-05-14T11:45:00.966Z,17.35
2019-05-14T11:47:27.076Z,17.41
2019-05-14T11:49:53.096Z,17.26
2019-05-14T11:52:19.321Z,17.10
2019-05-14T11:54:45.327Z,17.32
2019-05-14T11:57:11.922Z,18.64
2019-05-14T11:59:39.089Z,18.82
2019-05-14T12:02:05.252Z,18.88
2019-05-14T12:04:31.237Z,18.69
2019-05-14T12:06:59.178Z,17.95
2019-05-14T12:09:25.274Z,18.71
2019-05-14T12:11:51.360Z,18.99
2019-05-14T12:14:19.135Z,19.04
2019-05-14T12:16:45.253Z,19.33
2019-05-14T12:19:12.067Z,19.65
2019-05-14T12:21:39.789Z,19.31
2019-05-14T12:24:06.951Z,19.30
2019-05-14T12:26:33.946Z,19.02
2019-05-14T12:29:00.044Z,19.48
2019-05-14T12:31:26.067Z,18.89
2019-05-14T12:33:52.096Z,19.45
2019-05-14T12:36:19.367Z,19.33
2019-05-14T12:38:45.737Z,18.77
2019-05-14T12:41:11.875Z,19.40
2019-05-14T12:43:39.787Z,19.86
2019-05-14T12:46:05.798Z,19.70
2019-05-14T12:48:31.831Z,19.71
2019-05-14T12:50:59.450Z,19.44
2019-05-14T12:53:28.526Z,19.30
2019-05-14T12:55:53.554Z,19.52
2019-05-14T12:58:20.408Z,19.14
2019-05-14T13:00:48.612Z,19.31
2019-05-14T13:03:14.523Z,19.08
2019-05-14T13:05:40.557Z,19.41
2019-05-14T13:08:11.266Z,19.41
2019-05-14T13:10:34.496Z,19.30
2019-05-14T13:13:00.700Z,19.67
2019-05-14T13:15:28.714Z,19.42
2019-05-14T13:17:54.622Z,18.80
2019-05-14T13:20:21.715Z,18.13
2019-05-14T13:22:50.405Z,18.63
2019-05-14T13:25:18.391Z,18.46
2019-05-14T13:27:43.593Z,18.89
2019-05-14T13:30:10.340Z,19.14
2019-05-14T13:32:39.360Z,19.22
2019-05-14T13:35:09.428Z,19.23
2019-05-14T13:37:33.462Z,18.59
2019-05-14T13:39:59.562Z,18.83
2019-05-14T13:42:25.605Z,18.92
2019-05-14T13:44:51.745Z,19.03
2019-05-14T13:47:18.228Z,18.89
2019-05-14T13:49:44.485Z,19.44
2019-05-14T13:52:10.506Z,19.15
2019-05-14T13:54:39.138Z,19.44
2019-05-14T13:57:04.440Z,19.21
2019-05-14T13:59:30.466Z,18.79
2019-05-14T14:01:59.176Z,18.97
2019-05-14T14:04:24.394Z,18.36
2019-05-14T14:06:50.432Z,18.49
2019-05-14T14:09:16.465Z,18.14
2019-05-14T14:11:42.583Z,18.71
2019-05-14T14:14:09.045Z,18.33
2019-05-14T14:16:35.279Z,18.17
2019-05-14T14:19:03.249Z,18.37
2019-05-14T14:21:30.127Z,18.51
2019-05-14T14:23:59.026Z,18.27
2019-05-14T14:26:24.712Z,18.19
2019-05-14T14:28:50.741Z,17.88
2019-05-14T14:31:18.895Z,17.80
2019-05-14T14:33:44.729Z,18.19
2019-05-14T14:36:10.849Z,18.51
2019-05-14T14:38:39.907Z,18.57
2019-05-14T14:41:04.967Z,18.66
2019-05-14T14:43:31.027Z,18.54
2019-05-14T14:45:59.293Z,18.00
2019-05-14T14:48:25.034Z,17.63
2019-05-14T14:50:51.169Z,17.54
2019-05-14T14:53:21.808Z,17.35
2019-05-14T14:55:45.299Z,17.31
2019-05-14T14:58:11.896Z,17.30
2019-05-14T15:00:38.197Z,17.49
2019-05-14T15:03:04.321Z,17.36
2019-05-14T15:05:30.710Z,17.74
2019-05-14T15:07:59.897Z,17.77
2019-05-14T15:10:24.696Z,17.74
2019-05-14T15:12:50.695Z,17.50
2019-05-14T15:15:18.610Z,17.69
2019-05-14T15:17:44.782Z,17.53
2019-05-14T15:20:11.028Z,17.47
2019-05-14T15:22:37.214Z,17.37
2019-05-14T15:25:04.038Z,17.17
2019-05-14T15:27:30.191Z,17.32
2019-05-14T15:29:59.099Z,17.11
2019-05-14T15:32:24.226Z,16.90
2019-05-14T15:34:50.755Z,16.87
2019-05-14T15:37:19.065Z,16.81
2019-05-14T15:39:44.939Z,17.01
2019-05-14T15:42:13.690Z,16.80
2019-05-14T15:44:48.991Z,16.64
2019-05-14T15:47:11.218Z,16.48
2019-05-14T15:49:34.849Z,16.32
2019-05-14T15:52:01.118Z,16.20
2019-05-14T15:54:39.137Z,16.08
2019-05-14T15:56:55.212Z,16.10
2019-05-14T15:59:21.500Z,16.06
2019-05-14T16:01:47.557Z,16.05
2019-05-14T16:04:13.545Z,15.99
2019-05-14T16:06:39.548Z,15.98
2019-05-14T16:09:05.838Z,16.01
2019-05-14T16:11:32.141Z,15.60
2019-05-14T16:13:58.128Z,15.48
2019-05-14T16:16:24.159Z,15.41
2019-05-14T16:18:50.144Z,15.32
2019-05-14T16:21:18.269Z,15.19
2019-05-14T16:23:44.110Z,15.09
2019-05-14T16:26:10.103Z,15.22
2019-05-14T16:28:36.159Z,15.09
2019-05-14T16:31:02.501Z,15.13
2019-05-14T16:33:29.430Z,15.28
2019-05-14T16:35:57.859Z,15.14
2019-05-14T16:38:23.678Z,15.27
2019-05-14T16:40:49.965Z,15.66
2019-05-14T16:43:15.978Z,15.62
2019-05-14T16:45:41.968Z,15.19
2019-05-14T16:48:10.933Z,14.94
2019-05-14T16:50:36.065Z,14.82
2019-05-14T16:53:02.119Z,15.12
2019-05-14T16:55:30.701Z,14.96
2019-05-14T16:57:58.240Z,14.71
2019-05-14T17:00:24.094Z,14.78
2019-05-14T17:02:50.156Z,14.87
2019-05-14T17:05:16.157Z,14.85
2019-05-14T17:07:42.242Z,15.00
2019-05-14T17:10:08.731Z,14.58
2019-05-14T17:12:49.660Z,14.47
2019-05-14T17:15:04.829Z,14.66
2019-05-14T17:17:30.853Z,14.63
2019-05-14T17:19:58.786Z,14.47
2019-05-14T17:22:29.623Z,14.48
2019-05-14T17:24:52.903Z,14.58
2019-05-14T17:27:19.020Z,14.39
2019-05-14T17:29:45.048Z,14.24
2019-05-14T17:32:11.038Z,14.17
2019-05-14T17:34:38.583Z,14.35
2019-05-14T17:37:05.036Z,14.14
2019-05-14T17:39:31.322Z,13.88
2019-05-14T17:41:58.919Z,13.95
2019-05-14T17:44:25.089Z,13.84
2019-05-14T17:46:51.101Z,14.07
2019-05-14T17:49:19.126Z,13.92
2019-05-14T17:51:45.153Z,13.88
2019-05-14T17:54:11.216Z,14.03
2019-05-14T17:56:39.005Z,13.88
2019-05-14T17:59:05.142Z,13.80
2019-05-14T18:01:31.289Z,13.64
2019-05-14T18:03:58.396Z,13.69
2019-05-14T18:06:24.591Z,13.73
2019-05-14T18:08:50.775Z,13.63
2019-05-14T18:11:19.048Z,13.58
2019-05-14T18:13:44.815Z,13.73
2019-05-14T18:16:10.911Z,13.68
2019-05-14T18:18:36.933Z,13.67
2019-05-14T18:21:03.064Z,13.62
2019-05-14T18:23:29.139Z,13.39
2019-05-14T18:26:07.141Z,13.50
2019-05-14T18:28:23.576Z,13.55
2019-05-14T18:30:49.939Z,13.53
2019-05-14T18:33:18.580Z,13.46
2019-05-14T18:35:47.514Z,13.26
2019-05-14T18:38:12.220Z,13.37
2019-05-14T18:40:39.727Z,13.29
2019-05-14T18:43:08.546Z,13.23
2019-05-14T18:45:34.007Z,13.31
2019-05-14T18:48:00.060Z,13.10
2019-05-14T18:50:28.660Z,13.29
2019-05-14T18:52:54.158Z,13.06
2019-05-14T18:55:20.168Z,13.05
2019-05-14T18:57:48.542Z,13.09
2019-05-14T19:00:15.310Z,12.74
2019-05-14T19:02:41.517Z,12.85
2019-05-14T19:05:08.600Z,12.96
2019-05-14T19:07:34.824Z,12.86
2019-05-14T19:10:01.038Z,12.77
2019-05-14T19:12:28.974Z,12.55
2019-05-14T19:14:55.085Z,12.70
2019-05-14T19:17:21.099Z,12.72
2019-05-14T19:19:48.179Z,12.80
2019-05-14T19:22:14.501Z,12.99
2019-05-14T19:24:40.780Z,12.95
2019-05-14T19:27:09.101Z,12.81
2019-05-14T19:29:34.975Z,12.72
2019-05-14T19:32:01.091Z,12.65
2019-05-14T19:34:28.742Z,12.51
2019-05-14T19:36:54.968Z,12.60
2019-05-14T19:39:20.976Z,12.37
2019-05-14T19:41:48.406Z,12.30
2019-05-14T19:44:14.636Z,12.33
2019-05-14T19:46:40.891Z,12.38
2019-05-14T19:49:08.133Z,12.55
2019-05-14T19:51:34.298Z,12.30
2019-05-14T19:54:00.322Z,12.32
2019-05-14T19:56:29.141Z,12.02
2019-05-14T19:58:54.281Z,12.31
2019-05-14T20:01:20.349Z,12.25
2019-05-14T20:03:46.493Z,12.51
2019-05-14T20:06:12.502Z,12.50
2019-05-14T20:08:38.761Z,12.57
2019-05-14T20:11:04.862Z,12.45
2019-05-14T20:13:30.869Z,12.59
2019-05-14T20:15:58.917Z,12.61
2019-05-14T20:18:24.782Z,12.22
2019-05-14T20:20:50.803Z,12.27
2019-05-14T20:23:18.527Z,12.44
2019-05-14T20:25:44.716Z,12.31
2019-05-14T20:28:10.790Z,12.30
2019-05-14T20:30:38.652Z,12.15
2019-05-14T20:33:04.835Z,11.92
2019-05-14T20:35:34.900Z,11.92
2019-05-14T20:37:58.759Z,12.05
2019-05-14T20:43:06.135Z,11.82
2019-05-14T20:45:32.561Z,11.82
2019-05-14T20:47:58.744Z,11.74
2019-05-14T20:50:25.110Z,11.70
2019-05-14T20:52:54.619Z,11.62
2019-05-14T20:55:20.641Z,11.59
2019-05-14T20:57:48.749Z,11.46
2019-05-14T21:00:29.499Z,11.39
2019-05-14T21:02:55.659Z,11.26
2019-05-14T21:05:23.805Z,11.33
2019-05-14T21:07:51.916Z,11.26
2019-05-14T21:10:19.154Z,10.84
2019-05-14T21:12:45.423Z,10.55
2019-05-14T21:15:11.814Z,10.42
2019-05-14T21:17:38.027Z,10.12
2019-05-14T21:20:05.135Z,10.29
2019-05-14T21:22:31.263Z,10.73
2019-05-14T21:24:57.323Z,10.59
2019-05-14T21:27:37.568Z,10.64
2019-05-14T21:29:51.285Z,10.92
2019-05-14T21:32:19.488Z,11.00
2019-05-14T21:34:45.371Z,10.85
2019-05-14T21:37:11.402Z,10.75
2019-05-14T21:39:38.334Z,10.81
2019-05-14T21:42:10.939Z,10.71
2019-05-14T21:44:39.232Z,10.97
2019-05-14T21:47:05.290Z,10.85
2019-05-14T21:49:31.342Z,10.78
2019-05-14T21:51:58.410Z,10.79
2019-05-14T21:54:31.085Z,10.90
2019-05-14T21:56:58.668Z,10.85
2019-05-14T21:59:24.543Z,10.70
2019-05-14T22:01:50.769Z,10.73
2019-05-14T22:04:18.595Z,10.71
2019-05-14T22:06:44.782Z,11.41
2019-05-14T22:09:10.934Z,11.92
2019-05-14T22:11:39.367Z,12.14
2019-05-14T22:14:05.215Z,11.53
2019-05-14T22:16:31.212Z,10.85
2019-05-14T22:18:59.241Z,10.72
2019-05-14T22:21:25.161Z,10.45
2019-05-14T22:23:51.229Z,10.30
2019-05-14T22:26:18.608Z,10.26
2019-05-14T22:28:44.856Z,10.11
2019-05-14T22:31:10.878Z,10.05
2019-05-14T22:33:38.159Z,9.92
2019-05-14T22:36:04.436Z,9.83
2019-05-14T22:38:30.462Z,9.79
2019-05-14T22:40:56.469Z,9.78
2019-05-14T22:43:22.446Z,9.79
2019-05-14T22:45:48.477Z,9.68
2019-05-14T22:48:14.704Z,9.62
2019-05-14T22:50:41.432Z,9.53
2019-05-14T22:53:09.384Z,9.44
2019-05-14T22:55:35.544Z,9.26
2019-05-14T22:58:01.521Z,9.12
2019-05-14T23:00:28.611Z,9.02
2019-05-14T23:02:55.050Z,8.93
2019-05-14T23:05:21.104Z,8.92
2019-05-14T23:07:48.549Z,8.90
2019-05-14T23:10:14.942Z,8.85
2019-05-14T23:12:40.941Z,8.64
2019-05-14T23:15:07.436Z,8.67
2019-05-14T23:17:33.659Z,8.58
2019-05-14T23:19:59.704Z,8.70
2019-05-14T23:22:25.695Z,8.75
2019-05-14T23:24:51.678Z,8.72
2019-05-14T23:27:18.825Z,8.67
2019-05-14T23:29:45.054Z,8.70
2019-05-14T23:32:11.156Z,8.74
2019-05-14T23:34:38.002Z,8.70
2019-05-14T23:37:04.381Z,8.67
2019-05-14T23:39:30.650Z,8.71
2019-05-14T23:41:58.295Z,8.82
2019-05-14T23:44:24.460Z,8.78
2019-05-14T23:46:50.503Z,8.85
2019-05-14T23:49:18.422Z,8.74
2019-05-14T23:51:44.362Z,8.59
2019-05-14T23:54:10.385Z,8.64
2019-05-14T23:56:38.366Z,8.56
2019-05-14T23:59:04.365Z,8.50
